Return to the overview of this dataset or to the list of all FOR816 datasets.


Value filter for entity: Photosynthesis dataset of Ocotea_1272_shade (Tower Trees ECSF, lower platform), Date: 30/09/2014(id: 1146) of dataset: Photosynthesis dataset of Ocotea_1272_shade (Tower Trees ECSF, lower platform), Date: 30/09/2014 (dsid: 1583)

Select attribute to work with:



Order by

Aggregate by date/time

on attribute:

Draw graph of subset

    x     y1     y2  
     
datetime (Date and Time)
PhotoRate (Photosynthesis rate)
LeafCond (Leaf Conductance)
LeafTrans (Leaf transpiration)
temp_leaf (Leaf Temperature)
relh_leaf (Relative humidity of the leaf sample, measured by porometry)
PARi (Photosynthetic active radiation)
ParO (Photosynthetically active radiation)
VpdL (Vapor pressure deficit based on Leaf temp)

Results:

page: 1 / 6 , page size: , max results: 292

datetime PhotoRate LeafCond LeafTrans temp_leaf relh_leaf PARi ParO VpdL TreeID Tree_species
2014-09-30 17:23:22 -0.393 0.024 0.254 21.14 68.86 10.28 19.35 0.84 1272 "Ocothea aciphylla"
2014-09-30 17:28:23 -0.261 0.016 0.159 20.89 71.45 10.72 17.49 0.76 1272 "Ocothea aciphylla"
2014-09-30 17:33:23 -0.32 0.021 0.198 20.55 70.84 9.48 11.97 0.76 1272 "Ocothea aciphylla"
2014-09-30 17:38:23 -0.424 0.009 0.08 20.06 73.83 5.93 11.46 0.66 1272 "Ocothea aciphylla"
2014-09-30 17:43:23 -0.458 0.009 0.076 19.69 71.94 5.2 7.58 0.69 1272 "Ocothea aciphylla"
2014-09-30 17:48:24 -0.345 0.021 0.193 19.29 69.6 4.5 6.73 0.73 1272 "Ocothea aciphylla"
2014-09-30 17:53:24 -0.435 0.018 0.168 19.02 68.85 2.91 5.32 0.73 1272 "Ocothea aciphylla"
2014-09-30 17:58:24 -0.498 0.018 0.158 18.76 69.63 2.01 3.88 0.7 1272 "Ocothea aciphylla"
2014-09-30 18:03:25 -0.451 0.017 0.147 18.51 70.18 1.32 2.55 0.68 1272 "Ocothea aciphylla"
2014-09-30 18:08:25 -0.52 0.019 0.165 18.32 70.46 0.77 1.59 0.67 1272 "Ocothea aciphylla"
2014-09-30 18:13:25 -0.573 0.018 0.15 18.14 71.35 0.33 0.4 0.64 1272 "Ocothea aciphylla"
2014-09-30 18:18:26 -0.554 0.017 0.136 17.96 71.52 0.14 0.3 0.63 1272 "Ocothea aciphylla"
2014-09-30 18:23:26 -0.538 0.016 0.126 17.82 72.19 0.0 0.3 0.61 1272 "Ocothea aciphylla"
2014-09-30 18:28:26 -0.681 0.015 0.108 17.58 73.5 -0.04 0.52 0.58 1272 "Ocothea aciphylla"
2014-09-30 18:33:26 -0.592 0.014 0.096 17.36 74.01 -0.02 0.53 0.56 1272 "Ocothea aciphylla"
2014-09-30 18:38:27 -0.458 0.011 0.07 17.09 75.06 -0.04 0.56 0.52 1272 "Ocothea aciphylla"
2014-09-30 18:43:27 -0.563 0.015 0.103 17.06 74.68 -0.03 0.48 0.53 1272 "Ocothea aciphylla"
2014-09-30 18:48:27 -0.583 0.016 0.105 16.97 74.67 -0.05 0.48 0.52 1272 "Ocothea aciphylla"
2014-09-30 18:53:28 -0.558 0.015 0.1 16.89 74.81 -0.06 0.51 0.51 1272 "Ocothea aciphylla"
2014-09-30 18:58:28 -0.506 0.013 0.08 16.83 75.2 0.0 0.5 0.5 1272 "Ocothea aciphylla"
2014-09-30 19:03:28 -0.57 0.019 0.12 16.83 74.96 0.0 0.53 0.5 1272 "Ocothea aciphylla"
2014-09-30 19:08:29 -0.636 0.02 0.129 16.81 74.59 -0.05 0.53 0.51 1272 "Ocothea aciphylla"
2014-09-30 19:13:29 -0.629 0.021 0.135 16.79 74.07 -0.02 0.49 0.52 1272 "Ocothea aciphylla"
2014-09-30 19:18:29 -0.613 0.023 0.151 16.76 73.6 -0.04 0.65 0.52 1272 "Ocothea aciphylla"
2014-09-30 19:23:30 -0.638 0.026 0.178 16.72 72.78 -0.04 0.56 0.54 1272 "Ocothea aciphylla"
2014-09-30 19:28:30 -0.626 0.029 0.206 16.73 71.62 -0.01 0.59 0.56 1272 "Ocothea aciphylla"
2014-09-30 19:33:30 -0.627 0.027 0.198 16.7 70.79 -0.05 0.61 0.57 1272 "Ocothea aciphylla"
2014-09-30 19:38:30 -0.682 0.026 0.188 16.65 70.94 -0.03 0.53 0.57 1272 "Ocothea aciphylla"
2014-09-30 19:43:31 -0.635 0.025 0.179 16.59 71.17 -0.03 0.54 0.56 1272 "Ocothea aciphylla"
2014-09-30 19:48:31 -0.618 0.025 0.169 16.48 71.52 -0.03 0.52 0.54 1272 "Ocothea aciphylla"
2014-09-30 19:53:31 -0.572 0.017 0.108 16.35 72.53 -0.05 0.55 0.51 1272 "Ocothea aciphylla"
2014-09-30 19:58:32 -0.609 0.022 0.135 16.25 73.75 0.0 0.51 0.48 1272 "Ocothea aciphylla"
2014-09-30 20:03:32 -0.678 0.022 0.129 16.18 74.46 -0.05 0.61 0.47 1272 "Ocothea aciphylla"
2014-09-30 20:08:32 -0.627 0.02 0.118 16.12 74.42 -0.01 0.5 0.46 1272 "Ocothea aciphylla"
2014-09-30 20:13:33 -0.608 0.024 0.14 16.1 74.02 -0.03 0.49 0.47 1272 "Ocothea aciphylla"
2014-09-30 20:18:33 -0.68 0.028 0.172 16.12 73.26 -0.03 0.56 0.49 1272 "Ocothea aciphylla"
2014-09-30 20:23:33 -0.646 0.027 0.167 16.15 72.63 -0.01 0.45 0.5 1272 "Ocothea aciphylla"
2014-09-30 20:28:33 -0.571 0.022 0.135 16.13 73.25 0.01 0.5 0.49 1272 "Ocothea aciphylla"
2014-09-30 20:33:34 -0.574 0.023 0.137 16.09 73.73 -0.06 0.43 0.47 1272 "Ocothea aciphylla"
2014-09-30 20:38:34 -0.555 0.024 0.142 16.05 73.73 0.01 0.47 0.47 1272 "Ocothea aciphylla"
2014-09-30 20:43:34 -0.526 0.022 0.128 15.99 74.01 -0.01 0.5 0.46 1272 "Ocothea aciphylla"
2014-09-30 20:48:35 -0.571 0.024 0.143 15.99 73.91 -0.02 0.51 0.47 1272 "Ocothea aciphylla"
2014-09-30 20:53:35 -0.61 0.025 0.15 16.0 73.68 -0.06 0.47 0.47 1272 "Ocothea aciphylla"
2014-09-30 20:58:35 -0.555 0.026 0.158 16.02 73.36 -0.02 0.45 0.48 1272 "Ocothea aciphylla"
2014-09-30 21:03:36 -0.581 0.026 0.155 16.02 73.34 -0.04 0.48 0.48 1272 "Ocothea aciphylla"
2014-09-30 21:08:36 -0.583 0.026 0.154 15.99 73.22 -0.04 0.54 0.48 1272 "Ocothea aciphylla"
2014-09-30 21:13:36 -0.571 0.025 0.148 15.94 73.39 -0.07 0.53 0.47 1272 "Ocothea aciphylla"
2014-09-30 21:18:37 -0.525 0.025 0.15 15.91 73.38 -0.04 0.53 0.47 1272 "Ocothea aciphylla"
2014-09-30 21:23:37 -0.508 0.026 0.155 15.9 73.3 -0.04 0.49 0.47 1272 "Ocothea aciphylla"
2014-09-30 21:28:37 -0.525 0.025 0.149 15.85 73.45 -0.03 0.56 0.46 1272 "Ocothea aciphylla"

page: 1 / 6 , max results: 292


Return to the overview of this dataset or to the list of all FOR816 datasets.



Quick search

  • Publications:
  • Datasets: